Time;durP1;ratioP1;P1;durP2;ratioP2;P2;SDS_P1;SDS_P2;PMS_P1;PMS_P2;Temp;Humidity;BMP_temperature;BMP_pressure;BME280_temperature;BME280_humidity;BME280_pressure;Samples;Min_cycle;Max_cycle;Signal;HPM_P1;HPM_P2
2022/10/01 00:02:09;;;;;;;5.63;5.00;;;9.00;99.90;;;;;;5075889;28;20220;-59
2022/10/01 00:04:37;;;;;;;8.33;5.10;;;8.90;99.90;;;;;;5075772;28;20213;-59
2022/10/01 00:07:09;;;;;;;5.93;4.93;;;8.90;99.90;;;;;;5075426;28;20647;-60
2022/10/01 00:09:36;;;;;;;6.87;4.87;;;9.00;99.90;;;;;;5074753;28;20856;-61
2022/10/01 00:12:03;;;;;;;7.77;5.40;;;9.10;99.90;;;;;;5075254;28;20319;-61
2022/10/01 00:14:30;;;;;;;6.40;4.93;;;9.10;99.90;;;;;;5075366;28;20208;-61
2022/10/01 00:16:57;;;;;;;6.40;5.63;;;9.20;99.90;;;;;;5075082;28;20215;-60
2022/10/01 00:19:23;;;;;;;7.77;5.17;;;9.30;99.90;;;;;;5074586;28;20231;-60
2022/10/01 00:21:50;;;;;;;6.03;4.80;;;9.30;99.90;;;;;;5074807;28;20225;-61
2022/10/01 00:24:18;;;;;;;6.37;4.83;;;9.30;99.90;;;;;;5074596;28;20205;-60
2022/10/01 00:26:46;;;;;;;8.50;5.30;;;9.30;99.90;;;;;;5075056;28;20212;-61
2022/10/01 00:29:15;;;;;;;5.97;5.37;;;9.30;99.90;;;;;;5074596;28;20201;-60
2022/10/01 00:31:42;;;;;;;8.93;4.17;;;9.40;99.90;;;;;;5074564;28;20312;-61
2022/10/01 00:34:12;;;;;;;6.40;3.67;;;9.50;99.90;;;;;;5074739;28;20220;-60
2022/10/01 00:36:39;;;;;;;4.83;3.60;;;9.50;99.90;;;;;;5074884;28;20690;-60
2022/10/01 00:39:07;;;;;;;5.60;4.00;;;9.80;99.90;;;;;;5074180;28;20758;-61
2022/10/01 00:41:35;;;;;;;4.10;3.43;;;9.90;99.90;;;;;;5075121;28;20215;-60
2022/10/01 00:44:23;;;;;;;3.73;3.40;;;10.10;99.90;;;;;;5075373;28;20211;-60
2022/10/01 00:46:51;;;;;;;4.50;3.70;;;10.20;99.90;;;;;;5076374;28;20201;-61
2022/10/01 00:49:23;;;;;;;6.00;3.20;;;10.40;99.90;;;;;;5076661;28;20205;-60
2022/10/01 00:51:54;;;;;;;3.60;3.03;;;10.40;99.90;;;;;;5077434;28;20229;-60
2022/10/01 00:54:25;;;;;;;4.03;3.47;;;10.60;99.90;;;;;;5076141;28;20282;-60
2022/10/01 00:56:57;;;;;;;5.13;3.33;;;10.70;99.90;;;;;;5075842;28;20201;-60
2022/10/01 00:59:25;;;;;;;3.73;3.17;;;10.70;99.90;;;;;;5074429;28;20225;-60
2022/10/01 01:01:52;;;;;;;3.83;3.33;;;10.80;99.90;;;;;;5074876;28;20227;-59
2022/10/01 01:04:19;;;;;;;6.23;3.40;;;10.80;99.90;;;;;;5075020;28;20737;-61
2022/10/01 01:06:54;;;;;;;3.63;3.20;;;10.80;99.90;;;;;;5074222;28;20217;-60
2022/10/01 01:09:22;;;;;;;4.00;3.47;;;10.90;99.90;;;;;;5073645;28;20196;-61
2022/10/01 01:11:57;;;;;;;5.20;3.53;;;11.00;99.90;;;;;;5095832;22;20700;-60
2022/10/01 01:14:29;;;;;;;3.73;3.30;;;11.00;99.90;;;;;;5012951;28;20238;-58
2022/10/01 01:17:01;;;;;;;3.87;3.17;;;11.00;99.90;;;;;;4993356;28;20560;-58
2022/10/01 01:19:52;;;;;;;8.87;7.40;;;10.90;99.90;;;;;;4992645;28;20227;-58
2022/10/01 01:22:23;;;;;;;4.00;3.60;;;10.90;99.90;;;;;;4993097;28;20231;-58
2022/10/01 01:24:54;;;;;;;3.27;2.87;;;10.90;99.90;;;;;;4993649;28;20211;-58
2022/10/01 01:27:33;;;;;;;4.03;3.17;;;10.90;99.90;;;;;;4993315;28;20690;-58
2022/10/01 01:30:04;;;;;;;3.50;3.00;;;11.00;99.90;;;;;;4993030;28;20214;-63
2022/10/01 01:32:45;;;;;;;3.30;3.00;;;11.00;99.90;;;;;;5009623;28;20222;-62
2022/10/01 01:35:17;;;;;;;3.63;2.83;;;11.10;99.90;;;;;;5011277;28;20209;-59
2022/10/01 01:37:51;;;;;;;5.93;3.57;;;11.10;99.90;;;;;;5011743;28;20573;-60
2022/10/01 01:40:20;;;;;;;3.77;3.00;;;11.10;99.90;;;;;;5010582;28;20229;-62
2022/10/01 01:42:49;;;;;;;4.30;3.10;;;11.20;99.90;;;;;;5000353;28;20262;-63
2022/10/01 01:45:20;;;;;;;4.73;3.00;;;11.20;99.90;;;;;;5008056;28;20202;-60
2022/10/01 01:47:48;;;;;;;5.37;2.90;;;11.20;99.90;;;;;;5010915;28;20203;-58
2022/10/01 01:50:16;;;;;;;4.93;2.83;;;11.20;99.90;;;;;;5011784;28;20261;-57
2022/10/01 01:52:43;;;;;;;3.27;2.63;;;11.30;99.90;;;;;;5013808;28;20227;-58
2022/10/01 01:55:10;;;;;;;3.57;2.70;;;11.30;99.90;;;;;;5012324;28;20210;-58
2022/10/01 01:57:41;;;;;;;3.00;2.70;;;11.30;99.90;;;;;;5012162;28;20222;-58
2022/10/01 02:00:10;;;;;;;2.73;2.47;;;11.40;99.90;;;;;;5011638;28;20219;-58
2022/10/01 02:02:40;;;;;;;3.10;2.57;;;11.50;99.90;;;;;;5012378;28;20231;-58
2022/10/01 02:05:09;;;;;;;3.10;2.60;;;11.50;99.90;;;;;;5012161;28;20206;-58
2022/10/01 02:07:54;;;;;;;4.13;3.37;;;11.50;99.90;;;;;;5012206;28;20206;-58
2022/10/01 02:10:35;;;;;;;3.23;2.90;;;11.50;99.90;;;;;;5011699;28;20213;-59
2022/10/01 02:13:12;;;;;;;3.40;3.10;;;11.50;99.90;;;;;;5012131;28;20235;-58
2022/10/01 02:15:49;;;;;;;4.77;2.93;;;11.50;99.90;;;;;;5012044;28;20244;-59
2022/10/01 02:18:24;;;;;;;3.13;2.83;;;11.60;99.90;;;;;;5012110;28;20202;-57
2022/10/01 02:20:56;;;;;;;4.17;2.60;;;11.50;99.90;;;;;;5011512;28;20709;-59
2022/10/01 02:23:28;;;;;;;3.77;2.83;;;11.60;99.90;;;;;;5012137;28;20226;-58
2022/10/01 02:25:58;;;;;;;3.33;2.77;;;11.60;99.90;;;;;;5012887;28;20211;-58
2022/10/01 02:28:25;;;;;;;3.30;2.53;;;11.60;99.90;;;;;;5012935;28;20233;-59
2022/10/01 02:30:54;;;;;;;2.60;2.30;;;11.70;99.90;;;;;;5011857;28;20222;-57
2022/10/01 02:33:25;;;;;;;3.20;2.33;;;11.70;99.90;;;;;;5011809;28;20707;-59
2022/10/01 02:35:53;;;;;;;5.17;2.80;;;11.70;99.90;;;;;;5012027;28;20214;-59
2022/10/01 02:38:23;;;;;;;3.13;2.60;;;11.70;99.90;;;;;;5012081;28;20390;-57
2022/10/01 02:40:51;;;;;;;5.70;3.00;;;11.70;99.90;;;;;;5011243;28;20313;-58
2022/10/01 02:43:25;;;;;;;3.63;2.90;;;11.70;99.90;;;;;;5011739;28;20223;-58
2022/10/01 02:45:57;;;;;;;4.40;2.60;;;11.70;99.90;;;;;;5011626;28;20675;-59
2022/10/01 02:48:26;;;;;;;3.10;2.80;;;11.80;99.90;;;;;;5011730;28;20754;-61
2022/10/01 02:50:55;;;;;;;4.43;2.50;;;11.80;99.90;;;;;;5011447;28;20203;-60
2022/10/01 02:53:26;;;;;;;3.20;2.20;;;11.80;99.90;;;;;;5011836;28;20238;-60
2022/10/01 02:55:55;;;;;;;2.77;2.33;;;11.80;99.90;;;;;;5011709;28;20210;-59
2022/10/01 02:58:21;;;;;;;2.43;2.20;;;11.90;99.90;;;;;;5011581;28;20206;-58
2022/10/01 03:00:48;;;;;;;3.67;2.50;;;11.90;99.90;;;;;;5011292;28;20694;-58
2022/10/01 03:03:15;;;;;;;2.67;2.47;;;11.90;99.90;;;;;;5011761;28;20230;-57
2022/10/01 03:05:43;;;;;;;2.50;2.30;;;11.90;99.90;;;;;;5011655;28;20214;-59
2022/10/01 03:08:09;;;;;;;4.67;2.50;;;11.90;99.90;;;;;;5011972;28;20210;-59
2022/10/01 03:10:36;;;;;;;2.40;2.20;;;11.80;99.90;;;;;;5011035;28;20207;-58
2022/10/01 03:13:05;;;;;;;2.50;2.10;;;11.80;99.90;;;;;;5011305;28;20663;-58
2022/10/01 03:15:32;;;;;;;3.27;2.27;;;11.80;99.90;;;;;;5011769;28;20215;-59
2022/10/01 03:17:58;;;;;;;3.20;2.33;;;11.80;99.90;;;;;;5011649;28;20203;-58
2022/10/01 03:20:25;;;;;;;2.60;2.10;;;11.90;99.90;;;;;;5010874;28;20300;-59
2022/10/01 03:22:53;;;;;;;2.77;2.30;;;11.90;99.90;;;;;;5011517;28;20238;-59
2022/10/01 03:25:20;;;;;;;3.00;2.37;;;11.90;99.90;;;;;;5011383;28;20584;-58
2022/10/01 03:27:46;;;;;;;2.87;2.30;;;11.90;99.90;;;;;;5014713;28;20215;-61
2022/10/01 03:30:13;;;;;;;3.83;2.23;;;11.80;99.90;;;;;;5014628;28;20207;-59
2022/10/01 03:32:40;;;;;;;3.70;2.20;;;11.80;99.90;;;;;;5014791;28;20234;-58
2022/10/01 03:35:08;;;;;;;2.57;2.00;;;11.90;99.90;;;;;;5015007;28;20203;-59
2022/10/01 03:37:34;;;;;;;2.73;2.00;;;11.90;99.90;;;;;;5014760;28;20211;-59
2022/10/01 03:40:03;;;;;;;2.30;1.87;;;11.90;99.90;;;;;;5013980;28;20219;-59
2022/10/01 03:42:30;;;;;;;3.50;2.30;;;12.00;99.90;;;;;;5014871;28;20227;-59
2022/10/01 03:44:56;;;;;;;10.90;5.80;;;12.00;99.90;;;;;;5014544;28;20605;-59
2022/10/01 03:47:24;;;;;;;2.23;2.00;;;12.00;99.90;;;;;;5014563;28;20269;-59
2022/10/01 03:49:51;;;;;;;2.90;1.90;;;12.00;99.90;;;;;;5014014;28;20257;-59
2022/10/01 03:52:19;;;;;;;2.93;1.80;;;12.00;99.90;;;;;;5014670;28;20233;-59
2022/10/01 03:54:45;;;;;;;1.90;1.70;;;12.00;99.90;;;;;;5014398;28;20262;-59
2022/10/01 03:57:13;;;;;;;2.20;1.40;;;12.00;99.90;;;;;;5014552;28;20210;-60
2022/10/01 03:59:41;;;;;;;1.40;1.30;;;12.00;99.90;;;;;;5013571;28;20674;-59
2022/10/01 04:02:07;;;;;;;2.90;1.90;;;12.10;99.90;;;;;;5014375;28;20226;-60
2022/10/01 04:04:34;;;;;;;1.53;1.13;;;12.10;99.90;;;;;;5014525;28;20243;-59
2022/10/01 04:07:01;;;;;;;2.10;1.50;;;12.20;99.90;;;;;;5014183;28;20261;-59
2022/10/01 04:09:27;;;;;;;1.53;1.43;;;12.20;99.90;;;;;;5013376;28;20232;-59
2022/10/01 04:11:54;;;;;;;1.23;1.13;;;12.20;99.90;;;;;;5014044;28;20638;-58
2022/10/01 04:14:23;;;;;;;2.17;1.40;;;12.20;99.90;;;;;;5014466;28;20285;-60
2022/10/01 04:16:51;;;;;;;1.37;1.27;;;12.20;99.90;;;;;;5014067;28;20210;-60
2022/10/01 04:19:18;;;;;;;1.67;1.30;;;12.20;99.90;;;;;;5013430;28;20210;-60
2022/10/01 04:21:44;;;;;;;1.57;1.37;;;12.10;99.90;;;;;;5013674;28;20592;-59
2022/10/01 04:24:11;;;;;;;1.90;1.50;;;12.10;99.90;;;;;;5014989;28;20211;-59
2022/10/01 04:26:38;;;;;;;2.03;1.57;;;12.10;99.90;;;;;;5014020;28;20214;-59
2022/10/01 04:29:04;;;;;;;2.60;1.10;;;12.20;99.90;;;;;;5013333;28;20596;-59
2022/10/01 04:31:33;;;;;;;1.90;1.40;;;12.20;99.90;;;;;;5013857;28;20214;-60
2022/10/01 04:34:00;;;;;;;1.90;1.40;;;12.20;99.90;;;;;;5013697;28;20235;-60
2022/10/01 04:36:27;;;;;;;2.80;1.57;;;12.20;99.90;;;;;;5013226;28;20294;-59
2022/10/01 04:38:56;;;;;;;1.50;1.30;;;12.10;99.90;;;;;;5013224;28;20222;-60
2022/10/01 04:41:24;;;;;;;1.73;1.30;;;12.10;99.90;;;;;;5013457;28;20702;-60
2022/10/01 04:43:51;;;;;;;1.73;1.40;;;12.10;99.90;;;;;;5013625;28;20227;-59
2022/10/01 04:46:18;;;;;;;2.53;1.40;;;12.10;99.90;;;;;;5013449;28;20202;-60
2022/10/01 04:48:47;;;;;;;2.07;1.40;;;12.10;99.90;;;;;;5012702;28;20215;-59
2022/10/01 04:51:14;;;;;;;1.60;1.30;;;12.10;99.90;;;;;;5013580;28;20206;-60
2022/10/01 04:53:41;;;;;;;1.87;1.50;;;12.00;99.90;;;;;;5013263;28;20596;-60
2022/10/01 04:56:07;;;;;;;4.73;1.70;;;12.10;99.90;;;;;;5013282;28;20218;-60
2022/10/01 04:58:34;;;;;;;2.03;1.67;;;12.10;99.90;;;;;;5013330;28;20639;-60
2022/10/01 05:01:01;;;;;;;2.53;1.40;;;12.10;99.90;;;;;;5012412;28;20225;-60
2022/10/01 05:03:28;;;;;;;1.80;1.33;;;12.10;99.90;;;;;;5012989;28;20233;-60
2022/10/01 05:05:56;;;;;;;1.63;1.47;;;12.10;99.90;;;;;;5012986;28;20218;-60
2022/10/01 05:08:22;;;;;;;3.37;1.33;;;12.20;99.90;;;;;;5013378;28;20585;-60
2022/10/01 05:10:49;;;;;;;3.40;2.50;;;12.20;99.90;;;;;;5012609;28;20210;-60
2022/10/01 05:13:16;;;;;;;1.50;1.30;;;12.20;99.90;;;;;;5012863;28;20722;-59
2022/10/01 05:15:43;;;;;;;2.27;1.80;;;12.20;99.90;;;;;;5012839;28;20207;-59
2022/10/01 05:18:09;;;;;;;2.93;1.50;;;12.20;99.90;;;;;;5013084;28;20302;-59
2022/10/01 05:20:37;;;;;;;1.70;1.50;;;12.20;99.90;;;;;;5012245;28;20707;-59
2022/10/01 05:23:05;;;;;;;3.40;1.70;;;12.30;99.90;;;;;;5013049;28;20277;-60
2022/10/01 05:25:31;;;;;;;2.20;1.57;;;12.40;99.90;;;;;;5013052;28;20211;-59
2022/10/01 05:28:05;;;;;;;3.30;1.30;;;12.60;99.90;;;;;;5012655;28;20210;-58
2022/10/01 05:30:32;;;;;;;2.60;1.40;;;12.60;99.90;;;;;;5011975;28;20674;-60
2022/10/01 05:33:00;;;;;;;1.63;0.93;;;12.70;99.90;;;;;;5012516;28;20596;-59
2022/10/01 05:35:27;;;;;;;1.90;1.47;;;12.80;99.90;;;;;;5012864;28;20292;-59
2022/10/01 05:37:56;;;;;;;3.73;1.63;;;12.80;99.90;;;;;;5012453;28;20671;-59
2022/10/01 05:40:26;;;;;;;2.43;1.83;;;12.80;99.90;;;;;;5011896;28;20233;-58
2022/10/01 05:42:53;;;;;;;2.70;1.30;;;12.80;99.90;;;;;;5012636;28;20602;-59
2022/10/01 05:45:21;;;;;;;2.10;1.30;;;12.90;99.90;;;;;;5012976;28;20246;-60
2022/10/01 05:47:49;;;;;;;1.90;1.50;;;12.80;99.90;;;;;;5012772;28;20298;-59
2022/10/01 05:50:16;;;;;;;2.17;1.20;;;12.90;99.90;;;;;;5011344;28;20656;-60
2022/10/01 05:52:49;;;;;;;1.30;1.17;;;12.90;99.90;;;;;;5012384;28;20293;-59
2022/10/01 05:55:16;;;;;;;1.63;1.03;;;12.90;99.90;;;;;;5012339;28;20293;-59
2022/10/01 05:57:44;;;;;;;1.50;1.00;;;13.00;99.90;;;;;;5012390;28;20206;-59
2022/10/01 06:00:13;;;;;;;1.60;1.10;;;13.00;99.90;;;;;;5011556;28;20675;-58
2022/10/01 06:02:40;;;;;;;2.97;1.20;;;13.00;99.90;;;;;;5012115;28;20261;-60
2022/10/01 06:05:07;;;;;;;0.83;0.77;;;13.10;99.90;;;;;;5012300;28;20591;-60
2022/10/01 06:07:33;;;;;;;4.43;2.90;;;13.20;99.90;;;;;;5012174;28;20218;-60
2022/10/01 06:10:00;;;;;;;2.80;1.50;;;13.20;99.90;;;;;;5011489;28;20593;-60
2022/10/01 06:12:27;;;;;;;4.33;1.63;;;13.20;99.90;;;;;;5012053;28;20258;-60
2022/10/01 06:14:55;;;;;;;1.47;1.27;;;13.20;99.90;;;;;;5012123;28;20206;-60
2022/10/01 06:17:21;;;;;;;2.23;1.07;;;13.20;99.90;;;;;;5012183;28;20203;-59
2022/10/01 06:19:50;;;;;;;2.00;1.40;;;13.30;99.90;;;;;;5011432;28;20207;-59
2022/10/01 06:22:17;;;;;;;1.93;1.17;;;13.30;99.90;;;;;;5011915;28;20241;-59
2022/10/01 06:24:43;;;;;;;2.17;1.30;;;13.30;99.90;;;;;;5012098;28;20215;-59
2022/10/01 06:27:10;;;;;;;3.43;1.73;;;13.30;99.90;;;;;;5012067;28;20210;-60
2022/10/01 06:29:37;;;;;;;2.27;1.80;;;13.40;99.90;;;;;;5011466;28;20207;-60
2022/10/01 06:32:06;;;;;;;2.20;1.20;;;13.40;99.90;;;;;;5011867;28;20738;-60
2022/10/01 06:34:33;;;;;;;2.27;1.60;;;13.50;99.90;;;;;;5012083;28;20293;-60
2022/10/01 06:37:00;;;;;;;1.33;1.13;;;13.50;99.90;;;;;;5012046;28;20206;-58
2022/10/01 06:39:26;;;;;;;1.90;1.20;;;13.60;99.90;;;;;;5011741;28;20214;-59
2022/10/01 06:41:53;;;;;;;1.60;1.37;;;13.50;99.90;;;;;;5012093;28;20234;-60
2022/10/01 06:44:20;;;;;;;1.83;1.40;;;13.50;99.90;;;;;;5011739;28;20734;-60
2022/10/01 06:46:46;;;;;;;3.77;2.23;;;13.50;99.90;;;;;;5012072;28;20238;-60
2022/10/01 06:49:14;;;;;;;1.97;1.70;;;13.50;99.90;;;;;;5011258;28;20302;-60
2022/10/01 06:54:26;;;;;;;2.40;1.70;;;13.70;99.90;;;;;;5012271;28;20622;-59
2022/10/01 06:56:52;;;;;;;2.63;2.30;;;13.70;99.90;;;;;;5011880;28;20213;-59
2022/10/01 06:59:19;;;;;;;5.90;1.63;;;13.70;99.90;;;;;;5011046;28;20697;-60
2022/10/01 07:01:49;;;;;;;3.93;1.60;;;13.70;99.90;;;;;;5015155;28;20230;-60
2022/10/01 07:04:17;;;;;;;1.90;1.23;;;13.70;99.90;;;;;;5015256;28;20215;-59
2022/10/01 07:06:43;;;;;;;2.33;1.60;;;13.70;99.90;;;;;;5015472;28;20211;-60
2022/10/01 07:09:10;;;;;;;3.60;1.60;;;13.70;99.90;;;;;;5014923;28;20222;-60
2022/10/01 07:11:38;;;;;;;3.60;1.30;;;13.60;99.90;;;;;;5015279;28;20217;-59
2022/10/01 07:14:05;;;;;;;3.90;1.07;;;13.60;99.90;;;;;;5058102;22;20234;-59
2022/10/01 07:16:32;;;;;;;1.23;1.10;;;13.50;99.90;;;;;;5036725;28;20210;-59
2022/10/01 07:18:59;;;;;;;2.77;1.90;;;13.40;99.90;;;;;;5036251;28;20210;-58
2022/10/01 07:21:27;;;;;;;1.40;1.17;;;13.30;99.90;;;;;;5037115;28;20601;-60
2022/10/01 07:23:54;;;;;;;1.90;1.07;;;13.40;99.90;;;;;;5036266;28;20230;-60
2022/10/01 07:26:21;;;;;;;4.13;1.30;;;13.40;99.90;;;;;;5037319;28;20229;-59
2022/10/01 07:28:48;;;;;;;2.13;1.50;;;13.50;99.90;;;;;;5036737;28;20289;-60
2022/10/01 07:31:15;;;;;;;2.43;1.40;;;13.60;99.90;;;;;;5036429;28;20210;-60
2022/10/01 07:33:41;;;;;;;1.50;1.40;;;13.60;99.90;;;;;;5036922;28;20253;-60
2022/10/01 07:36:11;;;;;;;2.03;1.47;;;13.70;99.90;;;;;;5037149;28;20210;-60
2022/10/01 07:38:42;;;;;;;2.30;1.50;;;13.70;99.90;;;;;;5038867;28;20285;-59
2022/10/01 07:41:09;;;;;;;2.70;2.30;;;13.80;99.90;;;;;;5038134;28;20712;-60
2022/10/01 07:43:38;;;;;;;3.00;2.07;;;13.80;99.90;;;;;;5036594;28;20227;-60
2022/10/01 07:46:05;;;;;;;4.93;2.60;;;13.70;99.90;;;;;;5036172;28;20647;-60
2022/10/01 07:48:32;;;;;;;2.57;1.73;;;13.70;99.90;;;;;;5036091;28;20218;-59
2022/10/01 07:50:59;;;;;;;3.07;1.87;;;13.60;99.90;;;;;;5035445;28;20203;-60
2022/10/01 07:53:26;;;;;;;1.50;1.40;;;13.50;99.90;;;;;;5035497;28;20232;-58
2022/10/01 07:55:54;;;;;;;2.67;1.63;;;13.50;99.90;;;;;;5036372;28;20259;-59
2022/10/01 07:58:22;;;;;;;3.37;1.60;;;13.50;99.90;;;;;;5035673;28;20214;-59
2022/10/01 08:00:50;;;;;;;3.13;1.60;;;13.60;99.90;;;;;;5035293;28;20265;-59
2022/10/01 08:03:17;;;;;;;1.73;1.30;;;13.60;99.90;;;;;;5035186;28;20226;-58
2022/10/01 08:05:45;;;;;;;1.60;1.40;;;13.80;99.90;;;;;;5035548;28;20777;-59
2022/10/01 08:08:12;;;;;;;3.73;1.70;;;13.90;99.90;;;;;;5035603;28;20210;-58
2022/10/01 08:10:40;;;;;;;1.33;1.00;;;13.90;99.90;;;;;;5034946;28;20209;-58
2022/10/01 08:13:13;;;;;;;1.90;1.30;;;13.90;99.90;;;;;;5034115;28;20237;-59
2022/10/01 08:15:40;;;;;;;1.90;1.60;;;13.70;99.90;;;;;;5034890;28;20301;-59
2022/10/01 08:18:07;;;;;;;1.60;1.40;;;13.70;99.90;;;;;;5034644;28;20210;-58
2022/10/01 08:20:34;;;;;;;2.30;1.43;;;13.70;99.90;;;;;;5034295;28;20696;-58
2022/10/01 08:23:04;;;;;;;2.20;1.43;;;13.70;99.90;;;;;;5034360;28;20713;-59
2022/10/01 08:25:31;;;;;;;2.07;1.37;;;13.70;99.90;;;;;;5034977;28;20214;-59
2022/10/01 08:27:58;;;;;;;2.93;1.73;;;13.80;99.90;;;;;;5035360;28;20217;-59
2022/10/01 08:30:27;;;;;;;11.70;7.77;;;13.70;99.90;;;;;;5034963;28;20210;-59
2022/10/01 08:32:55;;;;;;;3.50;2.03;;;13.80;99.90;;;;;;5036059;28;20222;-60
2022/10/01 08:35:22;;;;;;;3.03;1.80;;;14.00;99.90;;;;;;5035549;28;20214;-59
2022/10/01 08:37:48;;;;;;;2.97;1.50;;;14.00;99.90;;;;;;5034979;28;20217;-59
2022/10/01 08:40:16;;;;;;;3.40;1.60;;;14.20;99.90;;;;;;5035111;28;20213;-59
2022/10/01 08:42:58;;;;;;;3.50;1.70;;;14.20;99.90;;;;;;5036235;28;20242;-59
2022/10/01 08:45:32;;;;;;;2.50;1.53;;;14.20;99.90;;;;;;5037051;28;20214;-59
2022/10/01 08:48:04;;;;;;;3.27;1.87;;;14.30;99.90;;;;;;5036597;28;20237;-59
2022/10/01 08:50:44;;;;;;;1.40;1.30;;;14.30;99.90;;;;;;5034748;28;20331;-59
2022/10/01 08:53:16;;;;;;;2.77;1.40;;;14.30;99.90;;;;;;5035210;28;20222;-59
2022/10/01 08:55:46;;;;;;;2.20;1.60;;;14.30;99.90;;;;;;5034524;28;20212;-59
2022/10/01 08:58:21;;;;;;;4.10;1.63;;;14.30;99.90;;;;;;5034873;28;20211;-59
2022/10/01 09:00:51;;;;;;;3.17;1.70;;;14.30;99.90;;;;;;5033757;28;20212;-59
2022/10/01 09:03:18;;;;;;;4.37;3.00;;;14.40;99.90;;;;;;5034074;28;20611;-59
2022/10/01 09:05:55;;;;;;;3.83;2.30;;;14.40;99.90;;;;;;5034627;28;20202;-59
2022/10/01 09:08:42;;;;;;;2.73;1.90;;;14.50;99.90;;;;;;5034109;28;20587;-59
2022/10/01 09:11:20;;;;;;;2.00;1.70;;;14.50;99.90;;;;;;5030052;28;20214;-59
2022/10/01 09:14:06;;;;;;;2.23;1.70;;;14.40;99.90;;;;;;5034318;28;20233;-63
2022/10/01 09:16:41;;;;;;;1.87;1.53;;;14.50;99.90;;;;;;5035722;28;20216;-63
2022/10/01 09:19:24;;;;;;;2.67;1.70;;;14.50;99.90;;;;;;5033323;28;20251;-60
2022/10/01 09:21:56;;;;;;;3.43;1.73;;;14.60;99.90;;;;;;5035618;28;20276;-61
2022/10/01 09:24:39;;;;;;;1.37;1.27;;;14.60;99.90;;;;;;5034236;28;20207;-58
2022/10/01 09:27:13;;;;;;;2.20;1.87;;;14.60;99.90;;;;;;5034629;28;20392;-60
2022/10/01 09:29:45;;;;;;;3.07;2.30;;;14.70;99.90;;;;;;5032701;28;20220;-59
2022/10/01 09:32:17;;;;;;;3.67;1.90;;;14.70;99.90;;;;;;5033126;28;20225;-58
2022/10/01 09:34:45;;;;;;;1.57;1.27;;;14.70;99.90;;;;;;5032952;28;20414;-59
2022/10/01 09:37:21;;;;;;;1.60;1.43;;;14.70;99.90;;;;;;5032391;28;20206;-59
2022/10/01 09:39:59;;;;;;;3.10;1.67;;;14.80;99.90;;;;;;5032640;28;20210;-59
2022/10/01 09:42:29;;;;;;;2.27;1.40;;;14.80;99.90;;;;;;5031838;28;20234;-59
2022/10/01 09:44:56;;;;;;;2.03;1.40;;;14.90;99.90;;;;;;5032303;28;20604;-58
2022/10/01 09:47:25;;;;;;;2.67;1.50;;;14.80;99.90;;;;;;5032610;28;20695;-59
2022/10/01 09:49:52;;;;;;;1.50;1.40;;;14.80;99.90;;;;;;5032291;28;20206;-58
2022/10/01 09:52:25;;;;;;;1.73;1.63;;;14.70;99.90;;;;;;5032520;28;20728;-58
2022/10/01 09:54:56;;;;;;;3.33;2.00;;;14.70;99.90;;;;;;5033154;28;20297;-59
2022/10/01 09:57:26;;;;;;;1.63;1.47;;;14.80;99.90;;;;;;5033575;28;20202;-59
2022/10/01 10:00:01;;;;;;;2.83;1.80;;;14.80;99.90;;;;;;5032173;28;20210;-59
2022/10/01 10:02:32;;;;;;;1.80;1.50;;;14.90;99.90;;;;;;5032465;28;20233;-59
2022/10/01 10:05:00;;;;;;;1.73;1.43;;;14.90;99.90;;;;;;5032430;28;20209;-58
2022/10/01 10:07:28;;;;;;;3.67;1.47;;;14.80;99.90;;;;;;5032477;28;20202;-59
2022/10/01 10:09:55;;;;;;;1.93;1.27;;;14.70;99.90;;;;;;5031945;28;20674;-59
2022/10/01 10:12:29;;;;;;;2.83;1.37;;;14.70;99.90;;;;;;5031805;28;20709;-59
2022/10/01 10:14:57;;;;;;;2.47;1.60;;;14.70;99.90;;;;;;5031907;28;20305;-58
2022/10/01 10:17:24;;;;;;;1.20;1.10;;;14.80;99.90;;;;;;5033137;28;20208;-61
2022/10/01 10:19:53;;;;;;;1.70;1.60;;;14.80;99.90;;;;;;5031710;28;20210;-59
2022/10/01 10:22:23;;;;;;;3.27;2.40;;;14.70;99.90;;;;;;5031598;28;20801;-59
2022/10/01 10:24:51;;;;;;;4.00;2.40;;;14.70;99.90;;;;;;5031647;28;20301;-59
2022/10/01 10:27:27;;;;;;;2.40;1.90;;;14.80;99.90;;;;;;5032022;28;20210;-59
2022/10/01 10:30:03;;;;;;;2.40;1.80;;;14.80;99.90;;;;;;5032299;28;20201;-59
2022/10/01 10:32:30;;;;;;;2.50;1.90;;;14.80;99.90;;;;;;5033247;28;20312;-60
2022/10/01 10:35:03;;;;;;;2.80;1.50;;;14.70;99.90;;;;;;5034824;28;20202;-60
2022/10/01 10:37:32;;;;;;;2.33;1.67;;;14.70;99.90;;;;;;5037332;28;20209;-59
2022/10/01 10:39:59;;;;;;;3.13;1.47;;;14.70;99.90;;;;;;5035442;28;20211;-59
2022/10/01 10:42:26;;;;;;;3.43;1.37;;;14.70;99.90;;;;;;5036655;28;20226;-58
2022/10/01 10:44:57;;;;;;;1.60;1.40;;;14.80;99.90;;;;;;5036730;28;20245;-58
2022/10/01 10:47:27;;;;;;;1.23;1.10;;;14.90;99.90;;;;;;5036212;28;20289;-59
2022/10/01 10:49:57;;;;;;;3.13;1.40;;;14.90;99.90;;;;;;5036638;28;20217;-59
2022/10/01 10:52:31;;;;;;;3.77;1.70;;;14.90;99.90;;;;;;5037511;28;20214;-59
2022/10/01 10:54:59;;;;;;;1.60;1.30;;;15.00;99.90;;;;;;5036798;28;20209;-59
2022/10/01 10:57:27;;;;;;;3.27;1.63;;;15.00;99.90;;;;;;5037159;28;20216;-59
2022/10/01 10:59:56;;;;;;;2.17;1.30;;;15.10;99.90;;;;;;5036502;28;20210;-59
2022/10/01 11:02:24;;;;;;;3.93;1.20;;;15.30;99.90;;;;;;5037669;28;20229;-58
2022/10/01 11:04:54;;;;;;;0.83;0.80;;;15.40;99.90;;;;;;5037568;28;20214;-58
2022/10/01 11:07:23;;;;;;;1.73;1.47;;;15.60;99.90;;;;;;5038238;28;20228;-60
2022/10/01 11:10:22;;;;;;;1.30;1.20;;;15.70;99.90;;;;;;5039553;28;20213;-60
2022/10/01 11:13:08;;;;;;;1.83;1.10;;;15.80;99.90;;;;;;5035757;28;20234;-61
2022/10/01 11:15:47;;;;;;;1.30;1.17;;;15.70;99.90;;;;;;5038349;28;20202;-61
2022/10/01 11:18:35;;;;;;;4.50;2.10;;;15.60;99.90;;;;;;5036541;28;20221;-58
2022/10/01 11:21:15;;;;;;;2.83;1.90;;;15.50;99.90;;;;;;5023580;28;20206;-58
2022/10/01 11:24:07;;;;;;;2.50;1.20;;;15.40;99.90;;;;;;5037161;28;20332;-57
2022/10/01 11:26:44;;;;;;;1.90;1.00;;;15.50;99.90;;;;;;5035664;28;20265;-58
2022/10/01 11:29:28;;;;;;;1.03;0.93;;;15.50;99.90;;;;;;5036404;28;20267;-58
2022/10/01 11:32:03;;;;;;;2.53;1.10;;;15.60;99.90;;;;;;5036497;28;20276;-58
2022/10/01 11:34:48;;;;;;;1.67;1.20;;;15.50;99.90;;;;;;5036117;28;20206;-59
2022/10/01 11:37:30;;;;;;;2.07;0.93;;;15.60;99.90;;;;;;5035908;28;20217;-59
2022/10/01 11:40:02;;;;;;;1.90;1.00;;;15.60;99.90;;;;;;5036195;28;20206;-59
2022/10/01 11:42:34;;;;;;;3.40;1.40;;;15.50;99.90;;;;;;5036166;28;20236;-59
2022/10/01 11:45:05;;;;;;;1.33;0.90;;;15.50;99.90;;;;;;5036709;28;20209;-61
2022/10/01 11:47:36;;;;;;;2.57;1.20;;;15.40;99.90;;;;;;5035183;28;20218;-60
2022/10/01 11:50:07;;;;;;;1.53;1.07;;;15.40;99.90;;;;;;5036641;28;20207;-61
2022/10/01 11:52:41;;;;;;;1.47;0.93;;;15.40;99.90;;;;;;5036295;28;20225;-61
2022/10/01 12:01:03;;;;;;;1.20;1.00;;;15.30;99.90;;;;;;5034585;28;20216;-62
2022/10/01 12:03:43;;;;;;;2.83;1.30;;;15.50;99.90;;;;;;5035086;28;20601;-63
2022/10/01 12:06:13;;;;;;;1.40;1.20;;;15.50;99.90;;;;;;5033593;28;20212;-58
2022/10/01 12:08:47;;;;;;;1.07;0.90;;;15.60;99.90;;;;;;5034393;28;20202;-62
2022/10/01 12:11:18;;;;;;;1.43;0.97;;;15.70;99.90;;;;;;5034089;28;20206;-59
2022/10/01 12:13:54;;;;;;;0.53;0.53;;;15.70;99.90;;;;;;5033337;28;20238;-59
2022/10/01 12:16:28;;;;;;;1.87;0.53;;;15.70;99.90;;;;;;5033727;28;20210;-61
2022/10/01 12:19:00;;;;;;;0.47;0.43;;;15.70;99.90;;;;;;5033272;28;20198;-60
2022/10/01 12:21:32;;;;;;;0.50;0.47;;;15.70;99.90;;;;;;5032911;28;20210;-61
2022/10/01 12:24:03;;;;;;;1.50;0.70;;;15.70;99.90;;;;;;5032990;28;20226;-61
2022/10/01 12:26:42;;;;;;;1.20;0.90;;;15.70;99.90;;;;;;5034659;28;20217;-59
2022/10/01 12:29:16;;;;;;;1.13;0.50;;;15.70;99.90;;;;;;5033967;28;20213;-59
2022/10/01 12:31:50;;;;;;;0.90;0.50;;;15.70;99.90;;;;;;5033600;28;20576;-60
2022/10/01 12:34:24;;;;;;;0.77;0.60;;;15.80;99.90;;;;;;5034007;28;20230;-59
2022/10/01 12:37:06;;;;;;;2.20;1.20;;;15.90;99.90;;;;;;5034884;28;20201;-60
2022/10/01 12:39:43;;;;;;;0.90;0.80;;;16.10;99.90;;;;;;5033287;28;20206;-59
2022/10/01 12:42:30;;;;;;;0.93;0.77;;;16.20;99.90;;;;;;5033870;28;20300;-59
2022/10/01 12:45:09;;;;;;;2.42;1.00;;;16.50;99.90;;;;;;5033788;28;20642;-60
2022/10/01 12:47:47;;;;;;;1.50;1.25;;;16.60;99.90;;;;;;5033959;28;20627;-60
2022/10/01 12:50:34;;;;;;;1.10;0.77;;;16.80;99.90;;;;;;5033874;28;20217;-59
2022/10/01 12:53:16;;;;;;;1.00;0.90;;;16.90;99.90;;;;;;5034613;28;20222;-60
2022/10/01 12:56:06;;;;;;;1.35;0.80;;;16.90;99.90;;;;;;5034047;28;20217;-60
2022/10/01 12:58:50;;;;;;;0.50;0.47;;;17.00;99.90;;;;;;5033459;28;20214;-59
2022/10/01 13:01:29;;;;;;;1.02;0.90;;;16.90;99.90;;;;;;5033634;28;20214;-60
2022/10/01 13:04:13;;;;;;;1.10;1.00;;;16.90;99.90;;;;;;5033540;28;20255;-60
2022/10/01 13:06:57;;;;;;;2.40;2.20;;;17.00;99.90;;;;;;5033489;28;20745;-60
2022/10/01 13:09:32;;;;;;;3.55;2.67;;;17.00;99.90;;;;;;5033355;28;20217;-67
2022/10/01 13:12:15;;;;;;;4.80;1.90;;;16.90;99.90;;;;;;5034091;28;20205;-61
2022/10/01 13:14:43;;;;;;;1.13;0.90;;;16.90;99.90;;;;;;5057457;22;20230;-58